WAT4203 LGLM-LGSM

Flight info

Callsign WAT4203
Flight time 0h 46m
Altitude 19000
Route MES L609 URNIL
Aircraft A320/M-SDE3FGHIRWY/LB1

Departure

Time 2026-05-07 17:03
Airport Limnos Airport (LGLM)

Arrival

Time 2026-05-07 17:49
Airport Samos Airport (LGSM)
Time Latitude Longitude Altitude Speed Heading
2026-05-07 16:43 39.92171 25.23448 17 ft 0 kts 36°
2026-05-07 17:00 39.92196 25.23471 18 ft 13 kts 36°
2026-05-07 17:00 39.92297 25.23571 17 ft 20 kts 43°
2026-05-07 17:00 39.92330 25.23723 16 ft 18 kts 102°
2026-05-07 17:00 39.92255 25.23856 16 ft 18 kts 134°
2026-05-07 17:01 39.92263 25.23983 16 ft 16 kts 46°
2026-05-07 17:01 39.92341 25.24080 16 ft 15 kts 43°
2026-05-07 17:01 39.92413 25.24169 18 ft 12 kts 44°
2026-05-07 17:01 39.92421 25.24255 19 ft 10 kts 127°
2026-05-07 17:02 39.92325 25.24319 16 ft 18 kts 162°
2026-05-07 17:02 39.92198 25.24228 16 ft 36 kts 223°
2026-05-07 17:02 39.91827 25.23776 16 ft 106 kts 223°
2026-05-07 17:02 39.91144 25.22952 28 ft 158 kts 223°
2026-05-07 17:03 39.90343 25.21972 677 ft 156 kts 222°
2026-05-07 17:03 39.89536 25.21001 1408 ft 156 kts 221°
2026-05-07 17:03 39.88738 25.20045 2005 ft 164 kts 222°
2026-05-07 17:03 39.87845 25.18975 2357 ft 186 kts 221°
2026-05-07 17:04 39.86893 25.17660 2660 ft 211 kts 240°
2026-05-07 17:04 39.86703 25.15763 3304 ft 224 kts 283°
2026-05-07 17:04 39.87578 25.14085 4172 ft 233 kts 323°
2026-05-07 17:04 39.89130 25.13470 4984 ft 241 kts
2026-05-07 17:05 39.90681 25.14250 5792 ft 245 kts 42°
2026-05-07 17:05 39.91576 25.16104 6565 ft 246 kts 76°
2026-05-07 17:05 39.91874 25.18304 7304 ft 248 kts 85°
2026-05-07 17:05 39.91961 25.20594 7846 ft 263 kts 99°
2026-05-07 17:06 39.91318 25.22888 8206 ft 282 kts 129°
2026-05-07 17:06 39.89783 25.24540 8762 ft 288 kts 161°
2026-05-07 17:06 39.87870 25.25366 9518 ft 293 kts 167°
2026-05-07 17:06 39.85927 25.26145 10264 ft 301 kts 167°
2026-05-07 17:07 39.83849 25.26979 10568 ft 325 kts 166°
2026-05-07 17:07 39.81604 25.27889 11039 ft 340 kts 166°
2026-05-07 17:07 39.79354 25.28814 11718 ft 347 kts 166°
2026-05-07 17:07 39.77034 25.29777 12444 ft 353 kts 165°
2026-05-07 17:08 39.74651 25.30769 13165 ft 358 kts 165°
2026-05-07 17:08 39.72284 25.31751 13857 ft 364 kts 165°
2026-05-07 17:08 39.69855 25.32753 14494 ft 369 kts 165°
2026-05-07 17:08 39.67400 25.33759 15167 ft 371 kts 166°
2026-05-07 17:09 39.64890 25.34784 15846 ft 374 kts 166°
2026-05-07 17:09 39.62393 25.35801 16500 ft 378 kts 166°
2026-05-07 17:09 39.59870 25.36826 17153 ft 381 kts 166°
2026-05-07 17:09 39.57326 25.37859 17798 ft 385 kts 166°
2026-05-07 17:10 39.54755 25.38901 18436 ft 389 kts 166°
2026-05-07 17:10 39.52165 25.39954 18896 ft 392 kts 166°
2026-05-07 17:10 39.49593 25.41001 19069 ft 393 kts 166°
2026-05-07 17:10 39.47022 25.42048 19114 ft 380 kts 166°
2026-05-07 17:11 39.44525 25.43064 19121 ft 373 kts 166°
2026-05-07 17:11 39.42057 25.44063 19122 ft 371 kts 167°
2026-05-07 17:11 39.39589 25.45058 19122 ft 371 kts 167°
2026-05-07 17:11 39.37127 25.46051 19122 ft 371 kts 167°
2026-05-07 17:12 39.34666 25.47045 19122 ft 371 kts 167°
2026-05-07 17:12 39.32203 25.48040 19122 ft 371 kts 166°
2026-05-07 17:12 39.29742 25.49037 19120 ft 371 kts 166°
2026-05-07 17:12 39.27279 25.50032 19121 ft 370 kts 167°
2026-05-07 17:13 39.24819 25.51023 19122 ft 370 kts 167°
2026-05-07 17:13 39.22358 25.52011 19126 ft 370 kts 167°
2026-05-07 17:13 39.19898 25.52998 19128 ft 370 kts 167°
2026-05-07 17:13 39.17436 25.53984 19129 ft 370 kts 167°
2026-05-07 17:14 39.14979 25.54970 19126 ft 370 kts 167°
2026-05-07 17:14 39.12484 25.55972 19129 ft 370 kts 167°
2026-05-07 17:14 39.10054 25.56948 19132 ft 371 kts 167°
2026-05-07 17:14 39.07592 25.57934 19131 ft 370 kts 167°
2026-05-07 17:15 39.05099 25.58933 19130 ft 370 kts 167°
2026-05-07 17:15 39.02643 25.59919 19131 ft 370 kts 167°
2026-05-07 17:15 39.00178 25.60907 19135 ft 370 kts 167°
2026-05-07 17:15 38.97717 25.61892 19136 ft 370 kts 167°
2026-05-07 17:16 38.95258 25.62874 19135 ft 370 kts 167°
2026-05-07 17:16 38.92799 25.63850 19136 ft 370 kts 167°
2026-05-07 17:16 38.90339 25.64828 19139 ft 370 kts 167°
2026-05-07 17:16 38.87879 25.65810 19139 ft 370 kts 166°
2026-05-07 17:17 38.85451 25.66782 19137 ft 370 kts 166°
2026-05-07 17:17 38.82959 25.67778 19135 ft 370 kts 167°
2026-05-07 17:17 38.80499 25.68756 19135 ft 370 kts 167°
2026-05-07 17:17 38.78037 25.69729 19136 ft 370 kts 167°
2026-05-07 17:18 38.75577 25.70702 19139 ft 370 kts 167°
2026-05-07 17:18 38.73151 25.71666 19138 ft 370 kts 167°
2026-05-07 17:18 38.70658 25.72656 19139 ft 370 kts 167°
2026-05-07 17:18 38.68195 25.73632 19140 ft 370 kts 167°
2026-05-07 17:19 38.65738 25.74607 19142 ft 370 kts 167°
2026-05-07 17:19 38.63273 25.75585 19144 ft 370 kts 167°
2026-05-07 17:19 38.60813 25.76558 19149 ft 370 kts 167°
2026-05-07 17:19 38.58352 25.77529 19142 ft 370 kts 167°
2026-05-07 17:20 38.55888 25.78500 19140 ft 370 kts 167°
2026-05-07 17:20 38.53424 25.79469 19138 ft 371 kts 167°
2026-05-07 17:20 38.50959 25.80438 19144 ft 371 kts 167°
2026-05-07 17:20 38.48526 25.81395 19146 ft 371 kts 167°
2026-05-07 17:21 38.46030 25.82376 19144 ft 371 kts 167°
2026-05-07 17:21 38.43563 25.83344 19149 ft 371 kts 167°
2026-05-07 17:21 38.41097 25.84312 19144 ft 371 kts 167°
2026-05-07 17:21 38.38630 25.85281 19151 ft 371 kts 167°
2026-05-07 17:22 38.36165 25.86249 19143 ft 371 kts 167°
2026-05-07 17:22 38.33697 25.87217 19145 ft 371 kts 167°
2026-05-07 17:22 38.31229 25.88185 19142 ft 371 kts 167°
2026-05-07 17:22 38.28762 25.89153 19145 ft 371 kts 167°
2026-05-07 17:23 38.26319 25.90241 19145 ft 374 kts 159°
2026-05-07 17:23 38.24056 25.91901 19152 ft 378 kts 146°
2026-05-07 17:23 38.22037 25.94055 19147 ft 379 kts 141°
2026-05-07 17:23 38.20054 25.96267 19144 ft 379 kts 141°
2026-05-07 17:24 38.18092 25.98447 19145 ft 379 kts 141°
2026-05-07 17:24 38.16076 26.00681 19144 ft 379 kts 141°
2026-05-07 17:24 38.14115 26.02848 19151 ft 379 kts 141°
2026-05-07 17:24 38.12124 26.05045 19151 ft 379 kts 141°
2026-05-07 17:25 38.10130 26.07242 19140 ft 379 kts 141°
2026-05-07 17:25 38.08139 26.09437 19140 ft 380 kts 141°
2026-05-07 17:25 38.06146 26.11635 19139 ft 380 kts 141°
2026-05-07 17:25 38.04152 26.13837 19144 ft 380 kts 141°
2026-05-07 17:26 38.02154 26.16041 19147 ft 380 kts 141°
2026-05-07 17:26 38.00157 26.18241 19150 ft 380 kts 141°
2026-05-07 17:26 37.98161 26.20444 19144 ft 380 kts 141°
2026-05-07 17:26 37.96163 26.22646 19158 ft 380 kts 141°
2026-05-07 17:27 37.94167 26.24839 19156 ft 380 kts 141°
2026-05-07 17:27 37.92168 26.27033 19158 ft 380 kts 141°
2026-05-07 17:27 37.90124 26.29267 19148 ft 395 kts 141°
2026-05-07 17:27 37.88027 26.31555 19146 ft 400 kts 141°
2026-05-07 17:28 37.85919 26.33861 19146 ft 401 kts 141°
2026-05-07 17:28 37.83814 26.36171 19143 ft 401 kts 141°
2026-05-07 17:28 37.81704 26.38483 19136 ft 401 kts 140°
2026-05-07 17:28 37.79591 26.40794 19146 ft 402 kts 140°
2026-05-07 17:29 37.77468 26.43111 19143 ft 402 kts 141°
2026-05-07 17:29 37.75349 26.45412 19148 ft 402 kts 141°
2026-05-07 17:29 37.73233 26.47707 19149 ft 402 kts 141°
2026-05-07 17:29 37.71133 26.50040 19146 ft 402 kts 135°
2026-05-07 17:30 37.69490 26.52878 19144 ft 403 kts 116°
2026-05-07 17:30 37.68628 26.56218 19140 ft 400 kts 96°
2026-05-07 17:30 37.68519 26.59719 19137 ft 398 kts 87°
2026-05-07 17:30 37.68541 26.63206 19140 ft 398 kts 87°
2026-05-07 17:31 37.68558 26.65527 19130 ft 398 kts 87°
2026-05-07 17:31 37.68581 26.69030 19138 ft 399 kts 87°
2026-05-07 17:31 37.68602 26.72527 19138 ft 399 kts 87°
2026-05-07 17:31 37.68619 26.76034 19140 ft 399 kts 87°
2026-05-07 17:32 37.68632 26.79539 19133 ft 400 kts 88°
2026-05-07 17:32 37.68644 26.83047 19144 ft 399 kts 88°
2026-05-07 17:32 37.68551 26.86547 19140 ft 401 kts 98°
2026-05-07 17:32 37.67576 26.89834 19132 ft 403 kts 123°
2026-05-07 17:33 37.65653 26.92351 19130 ft 399 kts 148°
2026-05-07 17:33 37.63179 26.93880 19130 ft 395 kts 164°
2026-05-07 17:33 37.60576 26.94704 19134 ft 375 kts 173°
2026-05-07 17:33 37.58057 26.95196 19135 ft 358 kts 175°
2026-05-07 17:34 37.55637 26.95642 19140 ft 344 kts 174°
2026-05-07 17:34 37.53328 26.96160 19144 ft 330 kts 174°
2026-05-07 17:34 37.51127 26.96180 19139 ft 305 kts 201°
2026-05-07 17:34 37.49386 26.94952 19133 ft 277 kts 234°
2026-05-07 17:35 37.48552 26.92901 19141 ft 259 kts 268°
2026-05-07 17:35 37.48826 26.90736 19143 ft 252 kts 301°
2026-05-07 17:35 37.50078 26.89240 19143 ft 255 kts 335°
2026-05-07 17:35 37.51846 26.88957 19147 ft 266 kts
2026-05-07 17:36 37.53690 26.89315 19147 ft 269 kts
2026-05-07 17:36 37.55542 26.89672 19138 ft 269 kts
2026-05-07 17:36 37.57400 26.89958 19136 ft 269 kts
2026-05-07 17:36 37.59260 26.90167 19143 ft 268 kts 359°
2026-05-07 17:37 37.61116 26.90321 19140 ft 268 kts 358°
2026-05-07 17:37 37.62979 26.90442 19141 ft 267 kts 358°
2026-05-07 17:37 37.64835 26.90544 19107 ft 268 kts 358°
2026-05-07 17:37 37.66744 26.90637 18486 ft 282 kts 357°
2026-05-07 17:38 37.68759 26.90726 17685 ft 297 kts 358°
2026-05-07 17:38 37.70824 26.90510 16879 ft 296 kts 337°
2026-05-07 17:38 37.72497 26.89094 16105 ft 292 kts 307°
2026-05-07 17:38 37.73273 26.86782 15641 ft 284 kts 279°
2026-05-07 17:39 37.73564 26.84399 15509 ft 262 kts 285°
2026-05-07 17:39 37.74022 26.82248 15328 ft 248 kts 287°
2026-05-07 17:39 37.74483 26.80207 14982 ft 243 kts 286°
2026-05-07 17:39 37.74736 26.78104 14566 ft 242 kts 277°
2026-05-07 17:40 37.74843 26.75952 14154 ft 242 kts 276°
2026-05-07 17:40 37.74930 26.73835 13705 ft 241 kts 275°
2026-05-07 17:40 37.75015 26.71722 13244 ft 240 kts 275°
2026-05-07 17:40 37.75105 26.69618 12779 ft 239 kts 275°
2026-05-07 17:41 37.75199 26.67521 12309 ft 239 kts 275°
2026-05-07 17:41 37.75297 26.65426 11837 ft 239 kts 275°
2026-05-07 17:41 37.75395 26.63358 11363 ft 239 kts 275°
2026-05-07 17:41 37.75498 26.61264 10915 ft 238 kts 275°
2026-05-07 17:42 37.75602 26.59170 10460 ft 238 kts 273°
2026-05-07 17:42 37.75272 26.57143 9988 ft 240 kts 242°
2026-05-07 17:42 37.74138 26.55622 9480 ft 241 kts 210°
2026-05-07 17:42 37.72542 26.55077 8986 ft 241 kts 178°
2026-05-07 17:43 37.70958 26.55680 8561 ft 238 kts 143°
2026-05-07 17:43 37.69942 26.57207 8418 ft 222 kts 112°
2026-05-07 17:43 37.69683 26.59117 7632 ft 226 kts 86°
2026-05-07 17:43 37.69813 26.61222 6515 ft 248 kts 83°
2026-05-07 17:44 37.69987 26.63270 6330 ft 224 kts 84°
2026-05-07 17:44 37.70097 26.65154 5843 ft 209 kts 87°
2026-05-07 17:44 37.70134 26.66935 5313 ft 195 kts 88°
2026-05-07 17:44 37.70177 26.68592 4848 ft 184 kts 88°
2026-05-07 17:45 37.70166 26.70149 4591 ft 166 kts 91°
2026-05-07 17:45 37.70095 26.71537 4326 ft 154 kts 95°
2026-05-07 17:45 37.69980 26.72869 3964 ft 152 kts 96°
2026-05-07 17:45 37.69845 26.74183 3600 ft 151 kts 96°
2026-05-07 17:46 37.69738 26.75490 3291 ft 148 kts 94°
2026-05-07 17:46 37.69645 26.76782 2950 ft 148 kts 94°
2026-05-07 17:46 37.69582 26.78071 2688 ft 146 kts 92°
2026-05-07 17:46 37.69547 26.79357 2457 ft 147 kts 92°
2026-05-07 17:47 37.69497 26.80640 2181 ft 146 kts 92°
2026-05-07 17:47 37.69440 26.81917 1846 ft 146 kts 93°
2026-05-07 17:47 37.69375 26.83184 1600 ft 145 kts 93°
2026-05-07 17:47 37.69318 26.84450 1331 ft 144 kts 93°
2026-05-07 17:48 37.69256 26.85735 944 ft 148 kts 93°
2026-05-07 17:48 37.69183 26.87006 687 ft 142 kts 95°
2026-05-07 17:48 37.69096 26.88233 415 ft 138 kts 96°
2026-05-07 17:48 37.69025 26.89413 216 ft 134 kts 95°
2026-05-07 17:49 37.68956 26.90569 37 ft 127 kts 96°
2026-05-07 17:49 37.68904 26.91438 29 ft 59 kts 95°
2026-05-07 17:49 37.68905 26.91676 29 ft 19 kts 46°
2026-05-07 17:49 37.68990 26.91627 29 ft 15 kts 288°
2026-05-07 17:50 37.69006 26.91506 29 ft 13 kts 277°
2026-05-07 17:50 37.68998 26.91396 29 ft 12 kts 263°
2026-05-07 17:50 37.69017 26.91329 29 ft 7 kts 340°
2026-05-07 17:50 37.69059 26.91329 29 ft 2 kts
2026-05-07 17:51 37.69061 26.91329 29 ft 0 kts